Time;durP1;ratioP1;P1;durP2;ratioP2;P2;SDS_P1;SDS_P2;PMS_P1;PMS_P2;Temp;Humidity;BMP_temperature;BMP_pressure;BME280_temperature;BME280_humidity;BME280_pressure;Samples;Min_cycle;Max_cycle;Signal;HPM_P1;HPM_P2
2021/10/13 00:01:30;;;;;;;;;;;7.30;99.90;;;;;;5014723;28;19909;-74
2021/10/13 00:03:55;;;;;;;;;;;7.40;99.90;;;;;;5014891;28;19952;-74
2021/10/13 00:06:21;;;;;;;;;;;7.50;99.90;;;;;;5032429;28;19912;-74
2021/10/13 00:08:47;;;;;;;;;;;7.50;99.90;;;;;;4998262;28;19983;-74
2021/10/13 00:11:12;;;;;;;;;;;7.40;99.90;;;;;;5014600;28;19905;-74
2021/10/13 00:13:38;;;;;;;;;;;7.40;99.90;;;;;;5014655;28;19906;-74
2021/10/13 00:16:04;;;;;;;;;;;7.30;99.90;;;;;;5014657;28;19912;-74
2021/10/13 00:18:30;;;;;;;;;;;7.50;99.90;;;;;;5014557;28;19909;-74
2021/10/13 00:20:56;;;;;;;;;;;7.30;99.90;;;;;;5032364;28;20426;-74
2021/10/13 00:23:21;;;;;;;;;;;7.40;99.90;;;;;;5032325;28;19956;-74
2021/10/13 00:25:47;;;;;;;;;;;7.40;99.90;;;;;;5032117;28;19917;-74
2021/10/13 00:28:12;;;;;;;;;;;7.30;99.90;;;;;;5014442;28;19909;-74
2021/10/13 00:30:38;;;;;;;;;;;7.40;99.90;;;;;;5032184;28;19920;-74
2021/10/13 00:33:04;;;;;;;;;;;7.50;99.90;;;;;;5032186;28;19912;-74
2021/10/13 00:35:29;;;;;;;;;;;7.50;99.90;;;;;;5032176;28;19913;-74
2021/10/13 00:37:55;;;;;;;;;;;7.60;99.90;;;;;;5014429;28;19909;-74
2021/10/13 00:40:21;;;;;;;;;;;7.60;99.90;;;;;;5015716;28;19978;-74
2021/10/13 00:42:46;;;;;;;;;;;7.70;99.90;;;;;;5036047;28;19912;-74
2021/10/13 00:45:12;;;;;;;;;;;7.50;99.90;;;;;;5036026;28;19916;-74
2021/10/13 00:47:37;;;;;;;;;;;7.40;99.90;;;;;;5018072;28;19915;-75
2021/10/13 00:50:03;;;;;;;;;;;7.20;99.90;;;;;;5035927;28;20290;-75
2021/10/13 00:52:29;;;;;;;;;;;7.20;99.90;;;;;;5018008;28;19905;-75
2021/10/13 00:54:55;;;;;;;;;;;7.30;99.90;;;;;;5035466;28;19905;-75
2021/10/13 00:57:21;;;;;;;;;;;7.30;99.90;;;;;;5035614;28;20300;-75
2021/10/13 00:59:47;;;;;;;;;;;7.10;99.90;;;;;;5035707;28;19912;-75
2021/10/13 01:02:15;;;;;;;;;;;7.20;99.90;;;;;;5035609;28;19915;-75
2021/10/13 01:04:40;;;;;;;;;;;7.20;99.90;;;;;;5017724;28;19911;-75
2021/10/13 01:07:12;;;;;;;;;;;7.10;99.90;;;;;;5017798;28;20107;-76
2021/10/13 01:09:56;;;;;;;;;;;7.00;99.90;;;;;;5035331;28;19909;-75
2021/10/13 01:12:32;;;;;;;;;;;7.20;99.90;;;;;;5017567;28;19913;-75
2021/10/13 01:15:03;;;;;;;;;;;7.40;99.90;;;;;;5035676;28;19940;-76
2021/10/13 01:17:35;;;;;;;;;;;7.50;99.90;;;;;;5017610;28;19905;-75
2021/10/13 01:20:20;;;;;;;;;;;7.50;99.90;;;;;;5035253;28;19963;-75
2021/10/13 01:23:05;;;;;;;;;;;7.50;99.90;;;;;;5035275;28;19905;-75
2021/10/13 01:25:36;;;;;;;;;;;7.50;99.90;;;;;;5017045;28;19913;-75
2021/10/13 01:28:03;;;;;;;;;;;7.60;99.90;;;;;;5017242;28;20285;-75
2021/10/13 01:30:36;;;;;;;;;;;7.50;99.90;;;;;;5017390;28;19905;-75
2021/10/13 01:33:04;;;;;;;;;;;7.20;99.90;;;;;;5017704;28;19905;-75
2021/10/13 01:35:31;;;;;;;;;;;6.90;99.90;;;;;;5034851;28;20285;-75
2021/10/13 01:37:59;;;;;;;;;;;6.80;99.90;;;;;;5000762;28;20376;-75
2021/10/13 01:40:27;;;;;;;;;;;6.80;99.90;;;;;;5034932;28;19966;-75
2021/10/13 01:42:54;;;;;;;;;;;6.70;99.90;;;;;;5017204;28;19916;-75
2021/10/13 01:45:20;;;;;;;;;;;6.70;99.90;;;;;;5034754;28;19904;-75
2021/10/13 01:47:47;;;;;;;;;;;6.90;99.90;;;;;;5034741;28;20361;-75
2021/10/13 01:50:13;;;;;;;;;;;7.00;99.90;;;;;;5017161;28;19905;-75
2021/10/13 01:52:39;;;;;;;;;;;7.20;99.90;;;;;;5034024;28;20011;-75
2021/10/13 01:55:05;;;;;;;;;;;7.10;99.90;;;;;;5016797;28;19996;-75
2021/10/13 01:57:31;;;;;;;;;;;7.20;99.90;;;;;;5034682;28;19959;-75
2021/10/13 02:00:01;;;;;;;;;;;7.30;99.90;;;;;;5034548;28;19940;-75
2021/10/13 02:02:30;;;;;;;;;;;7.10;99.90;;;;;;5000524;28;20337;-75
2021/10/13 02:04:57;;;;;;;;;;;7.00;99.90;;;;;;5000258;28;19944;-75
2021/10/13 02:07:23;;;;;;;;;;;7.10;99.90;;;;;;5034357;28;19905;-75
2021/10/13 02:09:50;;;;;;;;;;;7.20;99.90;;;;;;5034270;28;19912;-75
2021/10/13 02:12:17;;;;;;;;;;;7.30;99.90;;;;;;5034219;28;20316;-76
2021/10/13 02:14:43;;;;;;;;;;;7.20;99.90;;;;;;5016359;28;19929;-75
2021/10/13 02:17:09;;;;;;;;;;;7.20;99.90;;;;;;5016638;28;19905;-76
2021/10/13 02:19:36;;;;;;;;;;;7.40;99.90;;;;;;5033930;28;19909;-75
2021/10/13 02:22:02;;;;;;;;;;;7.40;99.90;;;;;;5016360;28;19912;-75
2021/10/13 02:24:34;;;;;;;;;;;7.40;99.90;;;;;;4999927;28;20346;-75
2021/10/13 02:27:07;;;;;;;;;;;7.20;99.90;;;;;;5034054;28;19913;-75
2021/10/13 02:29:33;;;;;;;;;;;7.20;99.90;;;;;;5034005;28;20265;-75
2021/10/13 02:31:59;;;;;;;;;;;6.90;99.90;;;;;;5016225;28;19909;-75
2021/10/13 02:34:24;;;;;;;;;;;7.00;99.90;;;;;;5016036;28;19905;-75
2021/10/13 02:36:50;;;;;;;;;;;7.10;99.90;;;;;;5033784;28;19947;-75
2021/10/13 02:39:16;;;;;;;;;;;7.20;99.90;;;;;;5033724;28;19916;-75
2021/10/13 02:41:41;;;;;;;;;;;7.20;99.90;;;;;;5034100;28;20436;-75
2021/10/13 02:44:07;;;;;;;;;;;7.20;99.90;;;;;;5016139;28;20319;-75
2021/10/13 02:46:36;;;;;;;;;;;7.20;99.90;;;;;;5033512;28;20353;-75
2021/10/13 02:49:06;;;;;;;;;;;7.20;99.90;;;;;;5033547;28;19905;-75
2021/10/13 02:51:52;;;;;;;;;;;7.10;99.90;;;;;;5015961;28;19905;-75
2021/10/13 02:54:20;;;;;;;;;;;7.30;99.90;;;;;;5032972;28;19967;-75
2021/10/13 02:56:47;;;;;;;;;;;7.40;99.90;;;;;;5015594;28;19947;-75
2021/10/13 02:59:34;;;;;;;;;;;7.60;99.90;;;;;;5015638;28;19909;-75
2021/10/13 03:02:02;;;;;;;;;;;7.60;99.90;;;;;;5015774;28;19925;-75
2021/10/13 03:04:30;;;;;;;;;;;7.50;99.90;;;;;;4998204;28;19940;-75
2021/10/13 03:07:01;;;;;;;;;;;7.40;99.90;;;;;;5015627;28;20357;-75
2021/10/13 03:09:29;;;;;;;;;;;7.50;99.90;;;;;;5033173;28;19991;-75
2021/10/13 03:11:54;;;;;;;;;;;7.60;99.90;;;;;;5033068;28;20051;-75
2021/10/13 03:14:22;;;;;;;;;;;7.50;99.90;;;;;;5033106;28;19992;-75
2021/10/13 03:16:49;;;;;;;;;;;7.60;99.90;;;;;;5015374;28;19987;-75
2021/10/13 03:19:16;;;;;;;;;;;7.60;99.90;;;;;;5032964;28;19936;-76
2021/10/13 03:21:42;;;;;;;;;;;7.60;99.90;;;;;;5015140;28;19912;-76
2021/10/13 03:24:07;;;;;;;;;;;7.50;99.90;;;;;;5032943;28;19905;-75
2021/10/13 03:26:33;;;;;;;;;;;7.40;99.90;;;;;;5014943;28;19967;-75
2021/10/13 03:28:59;;;;;;;;;;;7.40;99.90;;;;;;5015100;28;20357;-75
2021/10/13 03:31:24;;;;;;;;;;;7.40;99.90;;;;;;5015313;28;19912;-75
2021/10/13 03:33:52;;;;;;;;;;;7.50;99.90;;;;;;5032936;28;19905;-75
2021/10/13 03:36:18;;;;;;;;;;;7.50;99.90;;;;;;5032475;28;19979;-75
2021/10/13 03:38:44;;;;;;;;;;;7.60;99.90;;;;;;5032576;28;20336;-76
2021/10/13 03:41:09;;;;;;;;;;;7.70;99.90;;;;;;5032708;28;19905;-75
2021/10/13 03:43:35;;;;;;;;;;;7.80;99.90;;;;;;5032733;28;19909;-75
2021/10/13 03:46:00;;;;;;;;;;;7.70;99.90;;;;;;5032562;28;19905;-75
2021/10/13 03:48:30;;;;;;;;;;;7.60;99.90;;;;;;5032551;28;20391;-75
2021/10/13 03:50:55;;;;;;;;;;;7.50;99.90;;;;;;5015017;28;20276;-75
2021/10/13 03:53:21;;;;;;;;;;;7.30;99.90;;;;;;5015036;28;19912;-75
2021/10/13 03:55:47;;;;;;;;;;;7.20;99.90;;;;;;5014714;28;19948;-75
2021/10/13 03:58:12;;;;;;;;;;;7.30;99.90;;;;;;4998332;28;20007;-75
2021/10/13 04:00:38;;;;;;;;;;;7.30;99.90;;;;;;5032409;28;20425;-75
2021/10/13 04:03:03;;;;;;;;;;;7.40;99.90;;;;;;5014816;28;19911;-75
2021/10/13 04:05:29;;;;;;;;;;;7.40;99.90;;;;;;5014385;28;19909;-75
2021/10/13 04:07:55;;;;;;;;;;;7.30;99.90;;;;;;5014509;28;20012;-75
2021/10/13 04:10:20;;;;;;;;;;;7.60;99.90;;;;;;5014477;28;19905;-75
2021/10/13 04:12:46;;;;;;;;;;;7.80;99.90;;;;;;5014411;28;19909;-75
2021/10/13 04:15:12;;;;;;;;;;;7.90;99.90;;;;;;5033259;28;20327;-75
2021/10/13 04:17:37;;;;;;;;;;;7.70;99.90;;;;;;5018598;28;19932;-75
2021/10/13 04:20:04;;;;;;;;;;;7.80;99.90;;;;;;5018615;28;19911;-75
2021/10/13 04:22:30;;;;;;;;;;;7.80;99.90;;;;;;5018761;28;19905;-75
2021/10/13 04:24:55;;;;;;;;;;;7.90;99.90;;;;;;5018264;28;19928;-75
2021/10/13 04:27:21;;;;;;;;;;;8.00;99.90;;;;;;5018539;28;19927;-75
2021/10/13 04:29:46;;;;;;;;;;;8.00;99.90;;;;;;5036113;28;19956;-75
2021/10/13 04:32:12;;;;;;;;;;;8.10;99.90;;;;;;5018315;28;19905;-75
2021/10/13 04:34:38;;;;;;;;;;;7.80;99.90;;;;;;5035836;28;19905;-75
2021/10/13 04:37:03;;;;;;;;;;;7.80;99.90;;;;;;5018425;28;20039;-75
2021/10/13 04:39:29;;;;;;;;;;;7.90;99.90;;;;;;5035986;28;19974;-75
2021/10/13 04:41:54;;;;;;;;;;;7.80;99.90;;;;;;5036057;28;19912;-75
2021/10/13 04:44:20;;;;;;;;;;;7.80;99.90;;;;;;5035866;28;19912;-75
2021/10/13 04:46:46;;;;;;;;;;;7.80;99.90;;;;;;5018007;28;19909;-75
2021/10/13 04:49:31;;;;;;;;;;;7.80;99.90;;;;;;5035945;28;19941;-75
2021/10/13 04:52:17;;;;;;;;;;;7.70;99.90;;;;;;5021453;28;19927;-75
2021/10/13 04:55:03;;;;;;;;;;;7.70;99.90;;;;;;5020772;28;19983;-75
2021/10/13 04:57:48;;;;;;;;;;;7.70;99.90;;;;;;5021030;28;20411;-75
2021/10/13 05:00:21;;;;;;;;;;;7.80;99.90;;;;;;5022361;28;20361;-75
2021/10/13 05:02:47;;;;;;;;;;;7.90;99.90;;;;;;5035634;28;19905;-75
2021/10/13 05:05:13;;;;;;;;;;;7.70;99.90;;;;;;5001300;28;19905;-75
2021/10/13 05:07:38;;;;;;;;;;;7.70;99.90;;;;;;5017544;28;19915;-75
2021/10/13 05:10:04;;;;;;;;;;;7.70;99.90;;;;;;5017743;28;19905;-75
2021/10/13 05:12:30;;;;;;;;;;;7.80;99.90;;;;;;5017637;28;19905;-78
2021/10/13 05:14:55;;;;;;;;;;;7.70;99.90;;;;;;5017402;28;19951;-75
2021/10/13 05:17:21;;;;;;;;;;;7.70;99.90;;;;;;5017703;28;19912;-75
2021/10/13 05:19:47;;;;;;;;;;;7.70;99.90;;;;;;5035013;28;19967;-75
2021/10/13 05:22:12;;;;;;;;;;;7.90;99.90;;;;;;5035155;28;20468;-75
2021/10/13 05:24:38;;;;;;;;;;;7.90;99.90;;;;;;5017262;28;19909;-75
2021/10/13 05:27:04;;;;;;;;;;;8.00;99.90;;;;;;5033965;28;19913;-75
2021/10/13 05:29:29;;;;;;;;;;;8.10;99.90;;;;;;5000126;28;19905;-75
2021/10/13 05:31:55;;;;;;;;;;;8.00;99.90;;;;;;5000412;28;19947;-75
2021/10/13 05:34:20;;;;;;;;;;;7.90;99.90;;;;;;5034377;28;20355;-75
2021/10/13 05:36:46;;;;;;;;;;;7.90;99.90;;;;;;5016774;28;19953;-75
2021/10/13 05:39:12;;;;;;;;;;;7.80;99.90;;;;;;5017008;28;19959;-75
2021/10/13 05:41:37;;;;;;;;;;;7.70;99.90;;;;;;5034672;28;19959;-75
2021/10/13 05:44:03;;;;;;;;;;;7.70;99.90;;;;;;5034822;28;19975;-75
2021/10/13 05:46:29;;;;;;;;;;;7.60;99.90;;;;;;5034502;28;19905;-75
2021/10/13 05:48:54;;;;;;;;;;;7.60;99.90;;;;;;5016233;28;19905;-75
2021/10/13 05:51:20;;;;;;;;;;;7.70;99.90;;;;;;5034273;28;19963;-75
2021/10/13 05:53:46;;;;;;;;;;;7.70;99.90;;;;;;5034199;28;19905;-75
2021/10/13 05:56:11;;;;;;;;;;;7.60;99.90;;;;;;5016436;28;19912;-75
2021/10/13 05:58:37;;;;;;;;;;;7.70;99.90;;;;;;5034475;28;19913;-75
2021/10/13 06:01:03;;;;;;;;;;;7.70;99.90;;;;;;5016792;28;19999;-75
2021/10/13 06:03:29;;;;;;;;;;;7.80;99.90;;;;;;5000024;28;20257;-75
2021/10/13 06:05:54;;;;;;;;;;;7.70;99.90;;;;;;5016018;28;19990;-75
2021/10/13 06:08:21;;;;;;;;;;;7.80;99.90;;;;;;5033716;28;19909;-75
2021/10/13 06:10:47;;;;;;;;;;;7.80;99.90;;;;;;5015939;28;19909;-75
2021/10/13 06:13:13;;;;;;;;;;;7.90;99.90;;;;;;5034552;28;19912;-75
2021/10/13 06:15:38;;;;;;;;;;;7.90;99.90;;;;;;5032945;28;19987;-75
2021/10/13 06:18:07;;;;;;;;;;;7.80;99.90;;;;;;5032072;28;19952;-75
2021/10/13 06:20:33;;;;;;;;;;;7.60;99.90;;;;;;5031995;28;20353;-75
2021/10/13 06:22:59;;;;;;;;;;;7.50;99.90;;;;;;5029894;28;19912;-75
2021/10/13 06:25:24;;;;;;;;;;;7.20;99.90;;;;;;5032431;28;19920;-75
2021/10/13 06:27:50;;;;;;;;;;;7.20;99.90;;;;;;5032504;28;19909;-75
2021/10/13 06:30:16;;;;;;;;;;;7.20;99.90;;;;;;5016305;28;20368;-75
2021/10/13 06:32:41;;;;;;;;;;;7.40;99.90;;;;;;4998990;28;19905;-75
2021/10/13 06:35:08;;;;;;;;;;;7.20;99.90;;;;;;5033590;28;19939;-75
2021/10/13 06:37:33;;;;;;;;;;;7.30;99.90;;;;;;5032666;28;20327;-75
2021/10/13 06:39:59;;;;;;;;;;;7.50;99.90;;;;;;5033856;28;19915;-75
2021/10/13 06:42:24;;;;;;;;;;;7.60;99.90;;;;;;5039029;28;20034;-75
2021/10/13 06:44:50;;;;;;;;;;;7.40;99.90;;;;;;5035289;28;19936;-75
2021/10/13 06:47:16;;;;;;;;;;;7.30;99.90;;;;;;5034611;28;19935;-75
2021/10/13 06:49:41;;;;;;;;;;;7.30;99.90;;;;;;5035708;28;20401;-75
2021/10/13 06:52:07;;;;;;;;;;;7.50;99.90;;;;;;5051120;28;19912;-75
2021/10/13 06:54:33;;;;;;;;;;;7.50;99.90;;;;;;5031962;28;19955;-75
2021/10/13 06:56:58;;;;;;;;;;;7.30;99.90;;;;;;5033535;28;20408;-75
2021/10/13 06:59:24;;;;;;;;;;;7.30;99.90;;;;;;4997542;28;19909;-74
2021/10/13 07:01:49;;;;;;;;;;;7.50;99.90;;;;;;5014616;28;20262;-75
2021/10/13 07:04:15;;;;;;;;;;;7.70;99.90;;;;;;5020430;28;19953;-75
2021/10/13 07:06:41;;;;;;;;;;;7.80;99.90;;;;;;4998266;28;19909;-75
2021/10/13 07:09:07;;;;;;;;;;;7.80;99.90;;;;;;5015079;28;19912;-75
2021/10/13 07:11:33;;;;;;;;;;;7.60;99.90;;;;;;5014962;28;19905;-75
2021/10/13 07:14:03;;;;;;;;;;;7.60;99.90;;;;;;5014613;28;19921;-75
2021/10/13 07:16:29;;;;;;;;;;;7.50;99.90;;;;;;5032003;28;19913;-75
2021/10/13 07:18:55;;;;;;;;;;;7.60;99.90;;;;;;4999567;28;19909;-75
2021/10/13 07:21:20;;;;;;;;;;;7.70;99.90;;;;;;5013617;28;19905;-75
2021/10/13 07:23:46;;;;;;;;;;;7.60;99.90;;;;;;5031423;28;19912;-75
2021/10/13 07:26:11;;;;;;;;;;;7.20;99.90;;;;;;5013785;28;19963;-75
2021/10/13 07:28:40;;;;;;;;;;;7.10;99.90;;;;;;5031127;28;20327;-75
2021/10/13 07:31:06;;;;;;;;;;;7.00;99.90;;;;;;5014034;28;19905;-75
2021/10/13 07:33:32;;;;;;;;;;;6.90;99.90;;;;;;5033328;28;19905;-75
2021/10/13 07:35:58;;;;;;;;;;;6.80;99.90;;;;;;5031271;28;19917;-75
2021/10/13 07:38:24;;;;;;;;;;;6.80;99.90;;;;;;5016243;28;20060;-75
2021/10/13 07:40:50;;;;;;;;;;;6.60;99.90;;;;;;5013900;28;19905;-74
2021/10/13 07:43:16;;;;;;;;;;;6.80;99.90;;;;;;5012893;28;19912;-75
2021/10/13 07:45:42;;;;;;;;;;;7.10;99.90;;;;;;5013236;28;20014;-75
2021/10/13 07:48:08;;;;;;;;;;;7.20;99.90;;;;;;4997179;28;19908;-75
2021/10/13 07:50:34;;;;;;;;;;;7.10;99.90;;;;;;5012767;28;20000;-75
2021/10/13 07:52:59;;;;;;;;;;;6.90;99.90;;;;;;4996954;28;20284;-75
2021/10/13 07:55:25;;;;;;;;;;;6.90;99.90;;;;;;4996791;28;20416;-75
2021/10/13 07:57:50;;;;;;;;;;;7.00;99.90;;;;;;5030137;28;20192;-74
2021/10/13 08:00:17;;;;;;;;;;;7.00;99.90;;;;;;5035011;28;19905;-75
2021/10/13 08:02:43;;;;;;;;;;;6.90;99.90;;;;;;5030916;28;19905;-75
2021/10/13 08:05:08;;;;;;;;;;;7.10;99.90;;;;;;5013378;28;19945;-75
2021/10/13 08:07:34;;;;;;;;;;;7.10;99.90;;;;;;4995320;28;20322;-75
2021/10/13 08:10:00;;;;;;;;;;;7.30;99.90;;;;;;5015002;28;19909;-75
2021/10/13 08:12:25;;;;;;;;;;;7.50;99.90;;;;;;5030907;28;19909;-75
2021/10/13 08:14:51;;;;;;;;;;;7.80;99.90;;;;;;5034073;28;20272;-75
2021/10/13 08:17:16;;;;;;;;;;;7.90;99.90;;;;;;4997401;28;19905;-76
2021/10/13 08:19:42;;;;;;;;;;;7.90;99.90;;;;;;5031092;28;19916;-76
2021/10/13 08:22:08;;;;;;;;;;;7.80;99.90;;;;;;5012417;28;19915;-76
2021/10/13 08:24:34;;;;;;;;;;;7.70;99.90;;;;;;5012517;28;19958;-75
2021/10/13 08:26:59;;;;;;;;;;;7.60;99.90;;;;;;5013199;28;19913;-76
2021/10/13 08:29:25;;;;;;;;;;;7.70;99.90;;;;;;5012559;28;19905;-76
2021/10/13 08:31:51;;;;;;;;;;;7.80;99.90;;;;;;4996731;28;19908;-77
2021/10/13 08:34:16;;;;;;;;;;;8.00;99.90;;;;;;5012925;28;19916;-76
2021/10/13 08:36:42;;;;;;;;;;;7.70;99.90;;;;;;5013035;28;19916;-76
2021/10/13 08:39:08;;;;;;;;;;;7.80;99.90;;;;;;5012809;28;19912;-77
2021/10/13 08:41:33;;;;;;;;;;;8.00;99.90;;;;;;5013048;28;19909;-76
2021/10/13 08:43:59;;;;;;;;;;;8.00;99.90;;;;;;5033399;28;19951;-76
2021/10/13 08:46:24;;;;;;;;;;;8.10;99.90;;;;;;5030382;28;20345;-77
2021/10/13 08:48:50;;;;;;;;;;;8.30;99.90;;;;;;5012761;28;19912;-76
2021/10/13 08:51:16;;;;;;;;;;;8.50;99.90;;;;;;5030928;28;20328;-77
2021/10/13 08:53:41;;;;;;;;;;;8.60;99.90;;;;;;5030648;28;19912;-76
2021/10/13 08:56:07;;;;;;;;;;;8.80;99.90;;;;;;5012630;28;19977;-76
2021/10/13 08:58:37;;;;;;;;;;;9.00;99.90;;;;;;5030384;28;20280;-76
2021/10/13 09:01:03;;;;;;;;;;;8.80;99.90;;;;;;5029689;28;19958;-76
2021/10/13 09:03:30;;;;;;;;;;;8.60;99.90;;;;;;5016555;28;20317;-76
2021/10/13 09:05:57;;;;;;;;;;;8.40;99.90;;;;;;5016020;28;19954;-77
2021/10/13 09:08:23;;;;;;;;;;;8.50;99.90;;;;;;5034252;28;20365;-77
2021/10/13 09:10:52;;;;;;;;;;;8.40;99.90;;;;;;5033712;28;19948;-76
2021/10/13 09:13:18;;;;;;;;;;;8.50;99.90;;;;;;5034014;28;19913;-77
2021/10/13 09:15:48;;;;;;;;;;;8.60;99.90;;;;;;5033442;28;19913;-76
2021/10/13 09:18:14;;;;;;;;;;;8.60;99.90;;;;;;5033951;28;19909;-77
2021/10/13 09:20:41;;;;;;;;;;;8.70;99.90;;;;;;5003445;28;19912;-76
2021/10/13 09:23:13;;;;;;;;;;;8.90;99.90;;;;;;5033761;28;19905;-76
2021/10/13 09:25:41;;;;;;;;;;;9.00;99.90;;;;;;5033512;28;19962;-76
2021/10/13 09:28:08;;;;;;;;;;;9.30;99.90;;;;;;5032489;28;20365;-76
2021/10/13 09:30:39;;;;;;;;;;;9.40;99.90;;;;;;5015483;28;19905;-76
2021/10/13 09:33:23;;;;;;;;;;;9.30;99.90;;;;;;5015347;28;19905;-76
2021/10/13 09:35:48;;;;;;;;;;;9.00;99.90;;;;;;5037045;28;20353;-76
2021/10/13 09:38:16;;;;;;;;;;;9.00;99.90;;;;;;5015957;28;19916;-76
2021/10/13 09:40:41;;;;;;;;;;;8.60;99.90;;;;;;4998797;28;19919;-75
2021/10/13 09:43:07;;;;;;;;;;;8.70;99.90;;;;;;4999657;28;20345;-76
2021/10/13 09:45:37;;;;;;;;;;;8.90;99.90;;;;;;5033179;28;20349;-76
2021/10/13 09:48:06;;;;;;;;;;;9.20;99.90;;;;;;4999463;28;20364;-76
2021/10/13 09:50:42;;;;;;;;;;;9.20;99.90;;;;;;5001770;28;19909;-76
2021/10/13 09:53:20;;;;;;;;;;;9.80;99.90;;;;;;5015888;28;20522;-76
2021/10/13 09:55:46;;;;;;;;;;;9.80;99.90;;;;;;4998633;28;19905;-76
2021/10/13 09:58:23;;;;;;;;;;;9.30;99.90;;;;;;4999108;28;20349;-76
2021/10/13 10:00:49;;;;;;;;;;;9.20;99.90;;;;;;5015374;28;19923;-74
2021/10/13 10:03:16;;;;;;;;;;;9.50;99.90;;;;;;5033203;28;19996;-74
2021/10/13 10:05:42;;;;;;;;;;;9.90;99.90;;;;;;5032846;28;19905;-74
2021/10/13 10:08:10;;;;;;;;;;;10.70;99.90;;;;;;4999382;28;20012;-74
2021/10/13 10:10:36;;;;;;;;;;;10.80;99.90;;;;;;5016524;28;19909;-74
2021/10/13 10:13:09;;;;;;;;;;;10.80;99.90;;;;;;5032471;28;20357;-73
2021/10/13 10:15:34;;;;;;;;;;;10.30;99.90;;;;;;5016052;28;20365;-74
2021/10/13 10:18:01;;;;;;;;;;;9.90;99.90;;;;;;5015330;28;19912;-73
2021/10/13 10:20:35;;;;;;;;;;;9.90;99.90;;;;;;5033589;28;20440;-73
2021/10/13 10:23:00;;;;;;;;;;;9.90;99.90;;;;;;5014714;28;19905;-73
2021/10/13 10:25:36;;;;;;;;;;;10.30;99.90;;;;;;5032340;28;20285;-73
2021/10/13 10:28:01;;;;;;;;;;;10.80;99.90;;;;;;5014456;28;20331;-73
2021/10/13 10:30:27;;;;;;;;;;;10.80;99.90;;;;;;5015394;28;19909;-73
2021/10/13 10:32:53;;;;;;;;;;;10.70;99.90;;;;;;5015020;28;19909;-73
2021/10/13 10:35:18;;;;;;;;;;;11.20;99.90;;;;;;5032394;28;19913;-73
2021/10/13 10:37:48;;;;;;;;;;;11.90;99.90;;;;;;5032839;28;19968;-73
2021/10/13 10:40:20;;;;;;;;;;;12.80;97.40;;;;;;5032027;28;19909;-73
2021/10/13 10:42:59;;;;;;;;;;;13.70;96.00;;;;;;5031973;28;19994;-74
2021/10/13 10:45:31;;;;;;;;;;;14.30;91.00;;;;;;5032033;28;19905;-73
2021/10/13 10:47:59;;;;;;;;;;;13.50;91.40;;;;;;4993996;28;20293;-73
2021/10/13 10:50:34;;;;;;;;;;;12.90;89.60;;;;;;4998367;28;19911;-73
2021/10/13 10:53:06;;;;;;;;;;;12.70;88.50;;;;;;5032519;28;19913;-73
2021/10/13 10:55:35;;;;;;;;;;;13.10;88.60;;;;;;5010035;28;19920;-74
2021/10/13 10:58:13;;;;;;;;;;;13.60;82.50;;;;;;5028979;28;20089;-73
2021/10/13 11:00:39;;;;;;;;;;;13.40;85.40;;;;;;5032148;28;19905;-73
2021/10/13 11:03:18;;;;;;;;;;;13.20;86.10;;;;;;5014115;28;20000;-73
2021/10/13 11:05:45;;;;;;;;;;;12.90;89.20;;;;;;5014429;28;19905;-74
2021/10/13 11:08:10;;;;;;;;;;;13.30;91.20;;;;;;5015846;28;19905;-74
2021/10/13 11:10:36;;;;;;;;;;;14.20;84.30;;;;;;5032045;28;19912;-74
2021/10/13 11:13:02;;;;;;;;;;;13.70;82.50;;;;;;5030834;28;19905;-74
2021/10/13 11:15:28;;;;;;;;;;;13.60;84.40;;;;;;5031891;28;20280;-74
2021/10/13 11:17:55;;;;;;;;;;;12.90;83.40;;;;;;5031632;28;19990;-74
2021/10/13 11:20:24;;;;;;;;;;;12.80;88.20;;;;;;5032020;28;19912;-74
2021/10/13 11:22:57;;;;;;;;;;;13.20;91.60;;;;;;5015220;28;19909;-74
2021/10/13 11:25:23;;;;;;;;;;;12.30;92.00;;;;;;5030373;28;20383;-74
2021/10/13 11:28:02;;;;;;;;;;;11.50;93.80;;;;;;5015959;28;19905;-74
2021/10/13 11:30:29;;;;;;;;;;;11.60;97.90;;;;;;5013832;28;20007;-74
2021/10/13 11:32:55;;;;;;;;;;;11.50;96.90;;;;;;5013322;28;19912;-74
2021/10/13 11:35:21;;;;;;;;;;;11.10;97.20;;;;;;5031375;28;19905;-74
2021/10/13 11:37:50;;;;;;;;;;;10.70;97.80;;;;;;5031023;28;20031;-74
2021/10/13 11:40:17;;;;;;;;;;;10.60;99.90;;;;;;5031470;28;19916;-74
2021/10/13 11:42:43;;;;;;;;;;;10.60;99.90;;;;;;5012841;28;19909;-74
2021/10/13 11:45:13;;;;;;;;;;;10.50;99.90;;;;;;5013676;28;19944;-74
2021/10/13 11:47:39;;;;;;;;;;;10.40;99.90;;;;;;5034856;28;19916;-74
2021/10/13 11:50:12;;;;;;;;;;;10.40;99.90;;;;;;5031410;28;19913;-74
2021/10/13 11:52:40;;;;;;;;;;;10.30;99.90;;;;;;5031257;28;19970;-74
2021/10/13 11:55:10;;;;;;;;;;;10.20;99.90;;;;;;5013052;28;20288;-74
2021/10/13 11:57:37;;;;;;;;;;;10.10;99.90;;;;;;5011776;28;19904;-74
2021/10/13 12:00:08;;;;;;;;;;;9.80;99.90;;;;;;5013586;28;20403;-74
2021/10/13 12:02:34;;;;;;;;;;;9.60;99.90;;;;;;5015818;28;20224;-74
2021/10/13 12:05:03;;;;;;;;;;;9.20;99.90;;;;;;5010894;28;19951;-74
2021/10/13 12:07:29;;;;;;;;;;;9.10;99.90;;;;;;5029804;28;19905;-74
2021/10/13 12:09:56;;;;;;;;;;;9.40;99.90;;;;;;5030268;28;20387;-74
2021/10/13 12:12:21;;;;;;;;;;;9.10;99.90;;;;;;5013330;28;20272;-74
2021/10/13 12:14:47;;;;;;;;;;;9.10;99.90;;;;;;5030120;28;19905;-74
2021/10/13 12:17:23;;;;;;;;;;;9.20;99.90;;;;;;5011567;28;19948;-73
2021/10/13 12:19:49;;;;;;;;;;;9.20;99.90;;;;;;5012966;28;19913;-74
2021/10/13 12:22:14;;;;;;;;;;;9.00;99.90;;;;;;5030162;28;20491;-74
2021/10/13 12:24:40;;;;;;;;;;;9.10;99.90;;;;;;5028618;28;19980;-74
2021/10/13 12:27:08;;;;;;;;;;;9.20;99.90;;;;;;5029078;28;19940;-74
2021/10/13 12:29:42;;;;;;;;;;;9.40;99.90;;;;;;5025370;28;20303;-74
2021/10/13 12:32:18;;;;;;;;;;;9.70;99.90;;;;;;5012947;28;19913;-74
2021/10/13 12:34:44;;;;;;;;;;;9.50;99.90;;;;;;5030897;28;20636;-74
2021/10/13 12:37:10;;;;;;;;;;;9.60;99.90;;;;;;5028942;28;19959;-71
2021/10/13 12:39:35;;;;;;;;;;;9.30;99.90;;;;;;5035023;28;19955;-74
2021/10/13 12:42:05;;;;;;;;;;;9.40;99.90;;;;;;5016941;28;20195;-74
2021/10/13 12:44:31;;;;;;;;;;;9.60;99.90;;;;;;5034664;28;20376;-74
2021/10/13 12:46:58;;;;;;;;;;;10.10;99.90;;;;;;5017187;28;20331;-74
2021/10/13 12:49:25;;;;;;;;;;;10.80;99.90;;;;;;5019082;28;20250;-74
2021/10/13 12:52:02;;;;;;;;;;;11.50;99.90;;;;;;5034787;28;19912;-74
2021/10/13 12:54:29;;;;;;;;;;;11.90;99.90;;;;;;5034171;28;19909;-74
2021/10/13 12:56:55;;;;;;;;;;;11.40;99.90;;;;;;5016898;28;20277;-74
2021/10/13 12:59:21;;;;;;;;;;;10.70;99.90;;;;;;5034562;28;19909;-75
2021/10/13 13:01:47;;;;;;;;;;;10.70;99.90;;;;;;5034568;28;19905;-74
2021/10/13 13:04:12;;;;;;;;;;;11.10;99.90;;;;;;5034318;28;19928;-74
2021/10/13 13:06:39;;;;;;;;;;;10.90;99.90;;;;;;5016683;28;20390;-74
2021/10/13 13:09:04;;;;;;;;;;;10.70;99.90;;;;;;5016352;28;19905;-74
2021/10/13 13:11:30;;;;;;;;;;;10.60;99.90;;;;;;5000276;28;19909;-74
2021/10/13 13:13:56;;;;;;;;;;;10.30;99.90;;;;;;5033971;28;19948;-74
2021/10/13 13:16:24;;;;;;;;;;;10.30;99.90;;;;;;5016417;28;19905;-74
2021/10/13 13:18:50;;;;;;;;;;;10.40;99.90;;;;;;5015873;28;19913;-72
2021/10/13 13:21:16;;;;;;;;;;;10.20;99.90;;;;;;5033916;28;19975;-72
2021/10/13 13:23:41;;;;;;;;;;;10.40;99.90;;;;;;5016165;28;19912;-74
2021/10/13 13:26:07;;;;;;;;;;;10.30;99.90;;;;;;5033985;28;19913;-74
2021/10/13 13:28:32;;;;;;;;;;;10.50;99.90;;;;;;5033868;28;19951;-73
2021/10/13 13:30:58;;;;;;;;;;;10.60;99.90;;;;;;5016183;28;19916;-74
2021/10/13 13:33:24;;;;;;;;;;;10.50;99.90;;;;;;5016019;28;20101;-74
2021/10/13 13:35:49;;;;;;;;;;;10.50;99.90;;;;;;5033736;28;20487;-74
2021/10/13 13:38:15;;;;;;;;;;;10.60;99.90;;;;;;5017446;28;19905;-74
2021/10/13 13:40:40;;;;;;;;;;;10.50;99.90;;;;;;5034954;28;20357;-74
2021/10/13 13:43:07;;;;;;;;;;;10.50;99.90;;;;;;5015607;28;19912;-74
2021/10/13 13:45:34;;;;;;;;;;;10.60;99.90;;;;;;5004001;28;19905;-74
2021/10/13 13:47:59;;;;;;;;;;;10.70;99.90;;;;;;5014641;28;19905;-74
2021/10/13 13:50:26;;;;;;;;;;;10.60;99.90;;;;;;5033508;28;19905;-74
2021/10/13 13:52:53;;;;;;;;;;;10.70;99.70;;;;;;5033370;28;20358;-74
2021/10/13 13:55:18;;;;;;;;;;;10.90;99.80;;;;;;5033183;28;20321;-74
2021/10/13 13:57:44;;;;;;;;;;;11.20;99.60;;;;;;5015647;28;19985;-74
2021/10/13 14:00:10;;;;;;;;;;;11.30;97.90;;;;;;5033458;28;20288;-74
2021/10/13 14:02:36;;;;;;;;;;;11.10;98.70;;;;;;5033340;28;19912;-73
2021/10/13 14:05:01;;;;;;;;;;;11.00;96.70;;;;;;5033709;28;19905;-75
2021/10/13 14:07:27;;;;;;;;;;;10.70;95.80;;;;;;5032788;28;20324;-74
2021/10/13 14:09:53;;;;;;;;;;;10.80;95.90;;;;;;4998945;28;19952;-74
2021/10/13 14:12:18;;;;;;;;;;;10.60;95.40;;;;;;5015283;28;19909;-73
2021/10/13 14:14:44;;;;;;;;;;;10.90;97.30;;;;;;5028745;28;19905;-74
2021/10/13 14:17:10;;;;;;;;;;;10.80;94.70;;;;;;5015326;28;19913;-74
2021/10/13 14:19:35;;;;;;;;;;;11.00;97.10;;;;;;5015232;28;19920;-74
2021/10/13 14:22:01;;;;;;;;;;;11.10;96.90;;;;;;5014919;28;19956;-74
2021/10/13 14:24:27;;;;;;;;;;;11.00;97.30;;;;;;5026674;28;20218;-74
2021/10/13 14:26:57;;;;;;;;;;;11.10;96.80;;;;;;5031189;28;19924;-74